createdAt,value
2018-12-09T00:00:52.034Z,-0.10
2018-12-09T00:03:21.406Z,-0.10
2018-12-09T00:05:50.799Z,0.00
2018-12-09T00:08:20.208Z,-0.10
2018-12-09T00:10:49.603Z,-0.10
2018-12-09T00:13:19.012Z,-0.10
2018-12-09T00:15:48.417Z,-0.20
2018-12-09T00:18:17.826Z,-0.20
2018-12-09T00:20:47.252Z,-0.30
2018-12-09T00:23:16.633Z,-0.30
2018-12-09T00:25:46.173Z,-0.40
2018-12-09T00:28:15.570Z,-0.50
2018-12-09T00:30:44.965Z,-0.40
2018-12-09T00:33:14.378Z,-0.20
2018-12-09T00:35:43.889Z,-0.20
2018-12-09T00:38:13.389Z,-0.30
2018-12-09T00:40:42.809Z,-0.30
2018-12-09T00:43:12.193Z,-0.20
2018-12-09T00:45:41.567Z,-0.30
2018-12-09T00:48:10.965Z,-0.30
2018-12-09T00:50:40.341Z,-0.40
2018-12-09T00:53:09.749Z,-0.40
2018-12-09T00:55:40.314Z,-0.50
2018-12-09T00:58:09.694Z,-0.50
2018-12-09T01:00:39.066Z,-0.60
2018-12-09T01:03:08.413Z,-0.70
2018-12-09T01:05:37.897Z,-0.70
2018-12-09T01:08:07.390Z,-0.70
2018-12-09T01:10:36.815Z,-0.80
2018-12-09T01:13:06.213Z,-0.80
2018-12-09T01:15:35.588Z,-0.70
2018-12-09T01:18:04.945Z,-0.60
2018-12-09T01:20:34.427Z,-0.60
2018-12-09T01:23:03.895Z,-0.60
2018-12-09T01:25:33.368Z,-0.60
2018-12-09T01:28:02.756Z,-0.60
2018-12-09T01:30:32.242Z,-0.40
2018-12-09T01:33:01.716Z,-0.40
2018-12-09T01:35:31.201Z,-0.40
2018-12-09T01:38:00.578Z,-0.40
2018-12-09T01:40:34.169Z,-0.40
2018-12-09T01:43:03.548Z,-0.40
2018-12-09T01:45:33.335Z,-0.40
2018-12-09T01:48:02.705Z,-0.30
2018-12-09T01:50:32.081Z,-0.10
2018-12-09T01:55:11.119Z,0.00
2018-12-09T01:57:40.838Z,0.00
2018-12-09T02:00:10.431Z,0.00
2018-12-09T02:02:39.834Z,0.10
2018-12-09T02:05:09.454Z,0.10
2018-12-09T02:07:39.366Z,0.00
2018-12-09T02:10:08.891Z,0.00
2018-12-09T02:12:38.250Z,0.20
2018-12-09T02:15:07.949Z,0.20
2018-12-09T02:17:37.404Z,0.00
2018-12-09T02:20:06.939Z,0.00
2018-12-09T02:22:36.534Z,0.00
2018-12-09T02:25:06.054Z,0.20
2018-12-09T02:27:35.444Z,0.20
2018-12-09T02:30:05.604Z,0.30
2018-12-09T02:32:34.985Z,0.30
2018-12-09T02:35:06.406Z,0.30
2018-12-09T02:37:35.752Z,0.20
2018-12-09T02:40:05.529Z,0.20
2018-12-09T02:42:34.919Z,0.20
2018-12-09T02:45:04.696Z,0.30
2018-12-09T02:47:34.169Z,0.30
2018-12-09T02:50:03.745Z,0.30
2018-12-09T02:52:33.150Z,0.30
2018-12-09T02:55:02.614Z,0.30
2018-12-09T02:57:32.093Z,0.30
2018-12-09T03:00:01.814Z,0.40
2018-12-09T03:02:31.237Z,0.40
2018-12-09T03:05:00.620Z,0.40
2018-12-09T03:07:30.117Z,0.40
2018-12-09T03:10:00.014Z,0.40
2018-12-09T03:12:29.502Z,0.30
2018-12-09T03:14:58.930Z,0.40
2018-12-09T03:17:28.614Z,0.60
2018-12-09T03:19:58.130Z,0.60
2018-12-09T03:22:27.585Z,0.60
2018-12-09T03:24:57.102Z,0.80
2018-12-09T03:27:26.478Z,0.90
2018-12-09T03:29:55.946Z,1.00
2018-12-09T03:32:25.398Z,1.10
2018-12-09T03:34:55.101Z,1.20
2018-12-09T03:37:24.614Z,1.20
2018-12-09T03:39:54.083Z,1.30
2018-12-09T03:42:23.871Z,1.30
2018-12-09T03:44:53.254Z,1.20
2018-12-09T03:47:22.617Z,1.20
2018-12-09T03:49:52.153Z,1.10
2018-12-09T03:52:21.501Z,1.00
2018-12-09T03:54:50.877Z,0.80
2018-12-09T03:57:20.347Z,0.70
2018-12-09T03:59:49.933Z,0.60
2018-12-09T04:02:19.509Z,0.60
2018-12-09T04:04:48.891Z,0.60
2018-12-09T04:07:18.253Z,0.60
2018-12-09T04:09:47.613Z,0.60
2018-12-09T04:12:16.997Z,0.50
2018-12-09T04:14:46.473Z,0.50
2018-12-09T04:17:15.982Z,0.50
2018-12-09T04:19:45.341Z,0.50
2018-12-09T04:22:14.818Z,0.50
2018-12-09T04:24:44.198Z,0.50
2018-12-09T04:27:13.579Z,0.50
2018-12-09T04:29:43.221Z,0.50
2018-12-09T04:32:12.591Z,0.50
2018-12-09T04:34:41.958Z,0.40
2018-12-09T04:37:11.525Z,0.30
2018-12-09T04:39:40.911Z,0.30
2018-12-09T04:42:10.273Z,0.30
2018-12-09T04:44:39.739Z,0.30
2018-12-09T04:47:09.113Z,0.20
2018-12-09T04:49:38.498Z,0.20
2018-12-09T04:52:07.958Z,0.20
2018-12-09T04:54:37.320Z,0.20
2018-12-09T04:57:06.711Z,0.20
2018-12-09T04:59:36.236Z,0.20
2018-12-09T05:02:05.690Z,0.20
2018-12-09T05:04:35.069Z,0.10
2018-12-09T05:07:04.530Z,0.00
2018-12-09T05:09:34.202Z,0.00
2018-12-09T05:12:03.594Z,-0.10
2018-12-09T05:14:32.957Z,-0.10
2018-12-09T05:17:02.334Z,-0.10
2018-12-09T05:19:31.805Z,-0.10
2018-12-09T05:22:01.181Z,-0.20
2018-12-09T05:24:30.567Z,-0.10
2018-12-09T05:26:59.942Z,-0.20
2018-12-09T05:29:29.333Z,-0.10
2018-12-09T05:31:59.221Z,-0.10
2018-12-09T05:34:28.601Z,-0.10
2018-12-09T05:36:57.972Z,0.00
2018-12-09T05:39:27.549Z,-0.10
2018-12-09T05:41:56.950Z,-0.10
2018-12-09T05:44:26.301Z,0.00
2018-12-09T05:46:55.689Z,0.00
2018-12-09T05:49:25.037Z,0.00
2018-12-09T05:51:54.438Z,0.00
2018-12-09T05:54:24.535Z,-0.20
2018-12-09T05:56:53.913Z,-0.30
2018-12-09T05:59:23.282Z,-0.30
2018-12-09T06:01:52.865Z,-0.40
2018-12-09T06:04:22.249Z,-0.40
2018-12-09T06:06:51.614Z,-0.50
2018-12-09T06:09:21.095Z,-0.60
2018-12-09T06:11:50.553Z,-0.60
2018-12-09T06:14:19.918Z,-0.70
2018-12-09T06:16:49.809Z,-0.70
2018-12-09T06:19:19.212Z,-0.50
2018-12-09T06:21:48.689Z,-0.30
2018-12-09T06:24:18.033Z,0.30
2018-12-09T06:26:47.629Z,0.80
2018-12-09T06:29:17.025Z,0.80
2018-12-09T06:31:46.514Z,0.60
2018-12-09T06:34:15.889Z,0.60
2018-12-09T06:36:45.625Z,0.60
2018-12-09T06:39:15.488Z,0.80
2018-12-09T06:41:44.998Z,0.80
2018-12-09T06:44:14.386Z,0.90
2018-12-09T06:46:45.381Z,0.90
2018-12-09T06:49:14.758Z,0.70
2018-12-09T06:51:44.211Z,0.70
2018-12-09T06:54:13.660Z,0.70
2018-12-09T06:56:43.813Z,0.90
2018-12-09T06:59:13.416Z,1.30
2018-12-09T07:01:43.331Z,1.70
2018-12-09T07:04:12.729Z,2.10
2018-12-09T07:06:42.461Z,2.30
2018-12-09T07:09:11.777Z,2.70
2018-12-09T07:11:41.246Z,2.90
2018-12-09T07:14:10.801Z,3.00
2018-12-09T07:16:41.067Z,3.20
2018-12-09T07:19:17.041Z,3.40
2018-12-09T07:21:46.392Z,3.30
2018-12-09T07:24:16.148Z,3.60
2018-12-09T07:26:45.914Z,3.80
2018-12-09T07:29:15.317Z,4.10
2018-12-09T07:31:44.701Z,4.40
2018-12-09T07:34:14.218Z,4.50
2018-12-09T07:36:44.140Z,4.70
2018-12-09T07:39:13.585Z,4.50
2018-12-09T07:41:43.014Z,4.40
2018-12-09T07:44:12.513Z,4.40
2018-12-09T07:46:43.074Z,4.30
2018-12-09T07:49:12.441Z,4.40
2018-12-09T07:51:41.745Z,4.50
2018-12-09T07:54:11.134Z,4.60
2018-12-09T07:56:41.249Z,4.70
2018-12-09T07:59:11.444Z,5.00
2018-12-09T08:01:40.844Z,5.00
2018-12-09T08:04:10.197Z,5.20
2018-12-09T08:06:40.224Z,5.20
2018-12-09T08:09:09.709Z,5.30
2018-12-09T08:11:39.165Z,5.20
2018-12-09T08:14:08.531Z,5.30
2018-12-09T08:16:39.453Z,5.20
2018-12-09T08:19:08.796Z,5.40
2018-12-09T08:21:38.161Z,5.70
2018-12-09T08:24:07.657Z,5.80
2018-12-09T08:26:37.413Z,6.00
2018-12-09T08:29:06.837Z,6.10
2018-12-09T08:31:36.224Z,6.10
2018-12-09T08:34:05.644Z,6.10
2018-12-09T08:36:34.994Z,6.20
2018-12-09T08:39:06.040Z,6.40
2018-12-09T08:41:35.425Z,6.60
2018-12-09T08:44:04.782Z,6.80
2018-12-09T08:46:34.171Z,6.90
2018-12-09T08:49:03.562Z,7.00
2018-12-09T08:51:33.021Z,7.00
2018-12-09T08:54:02.800Z,7.30
2018-12-09T08:56:32.417Z,7.60
2018-12-09T08:59:01.769Z,7.80
2018-12-09T09:01:31.253Z,7.90
2018-12-09T09:04:00.618Z,8.00
2018-12-09T09:06:30.048Z,7.90
2018-12-09T09:08:59.384Z,7.80
2018-12-09T09:11:28.741Z,7.80
2018-12-09T09:13:58.193Z,7.80
2018-12-09T09:16:27.569Z,7.60
2018-12-09T09:18:56.909Z,7.40
2018-12-09T09:21:26.257Z,7.30
2018-12-09T09:23:55.699Z,7.40
2018-12-09T09:26:25.260Z,7.50
2018-12-09T09:28:54.987Z,7.90
2018-12-09T09:31:24.449Z,8.20
2018-12-09T09:33:54.802Z,8.40
2018-12-09T09:36:26.839Z,8.60
2018-12-09T09:38:56.397Z,8.80
2018-12-09T09:41:25.789Z,8.80
2018-12-09T09:43:55.561Z,8.80
2018-12-09T09:46:24.914Z,8.60
2018-12-09T09:48:54.482Z,8.40
2018-12-09T09:51:23.836Z,8.20
2018-12-09T09:53:53.307Z,8.10
2018-12-09T09:56:22.645Z,8.00
2018-12-09T09:58:52.197Z,7.80
2018-12-09T10:01:21.541Z,7.70
2018-12-09T10:03:51.573Z,7.70
2018-12-09T10:06:21.025Z,7.60
2018-12-09T10:08:50.357Z,7.50
2018-12-09T10:11:20.169Z,7.50
2018-12-09T10:13:49.890Z,7.50
2018-12-09T10:16:19.582Z,7.60
2018-12-09T10:18:49.149Z,7.60
2018-12-09T10:21:18.489Z,7.80
2018-12-09T10:23:47.937Z,8.00
2018-12-09T10:26:17.282Z,8.20
2018-12-09T10:28:46.753Z,8.30
2018-12-09T10:31:16.128Z,8.50
2018-12-09T10:33:45.483Z,8.60
2018-12-09T10:36:14.837Z,8.60
2018-12-09T10:38:44.201Z,8.50
2018-12-09T10:41:13.652Z,8.40
2018-12-09T10:43:43.041Z,8.40
2018-12-09T10:46:12.390Z,8.40
2018-12-09T10:48:42.316Z,8.40
2018-12-09T10:51:11.805Z,8.40
2018-12-09T10:53:43.201Z,8.30
2018-12-09T10:56:12.601Z,8.10
2018-12-09T10:58:42.057Z,8.00
2018-12-09T11:01:16.606Z,7.90
2018-12-09T11:03:45.956Z,7.90
2018-12-09T11:06:16.956Z,7.80
2018-12-09T11:08:47.782Z,7.80
2018-12-09T11:11:20.921Z,7.80
2018-12-09T11:13:58.132Z,7.80
2018-12-09T11:16:24.234Z,7.90
2018-12-09T11:18:53.589Z,8.00
2018-12-09T11:21:30.384Z,8.00
2018-12-09T11:23:54.353Z,8.00
2018-12-09T11:26:23.956Z,7.90
2018-12-09T11:28:53.470Z,7.80
2018-12-09T11:31:22.933Z,7.80
2018-12-09T11:33:52.596Z,7.70
2018-12-09T11:36:21.940Z,7.50
2018-12-09T11:38:51.292Z,7.40
2018-12-09T11:41:23.420Z,7.40
2018-12-09T11:43:52.872Z,7.30
2018-12-09T11:46:22.209Z,7.30
2018-12-09T11:48:51.646Z,7.30
2018-12-09T11:51:20.985Z,7.40
2018-12-09T11:53:50.332Z,7.70
2018-12-09T11:56:19.784Z,7.80
2018-12-09T11:58:49.180Z,7.90
2018-12-09T12:01:18.560Z,8.00
2018-12-09T12:03:48.023Z,8.00
2018-12-09T12:06:17.406Z,8.20
2018-12-09T12:08:46.765Z,8.30
2018-12-09T12:11:16.270Z,8.40
2018-12-09T12:13:45.721Z,8.40
2018-12-09T12:16:15.084Z,8.40
2018-12-09T12:18:44.604Z,8.30
2018-12-09T12:21:13.983Z,8.30
2018-12-09T12:23:43.320Z,8.30
2018-12-09T12:26:13.627Z,8.40
2018-12-09T12:28:43.253Z,8.50
2018-12-09T12:31:12.705Z,8.70
2018-12-09T12:33:42.108Z,8.70
2018-12-09T12:36:11.549Z,8.80
2018-12-09T12:38:40.904Z,8.70
2018-12-09T12:41:10.301Z,8.60
2018-12-09T12:43:39.796Z,8.70
2018-12-09T12:46:09.217Z,8.60
2018-12-09T12:48:38.990Z,8.50
2018-12-09T12:51:08.370Z,8.40
2018-12-09T12:53:37.877Z,8.40
2018-12-09T12:56:07.237Z,8.40
2018-12-09T12:58:36.701Z,8.40
2018-12-09T13:01:06.044Z,8.40
2018-12-09T13:03:35.585Z,8.30
2018-12-09T13:06:05.044Z,8.30
2018-12-09T13:08:34.621Z,8.30
2018-12-09T13:11:03.960Z,8.30
2018-12-09T13:13:33.685Z,8.50
2018-12-09T13:16:03.057Z,8.50
2018-12-09T13:18:32.417Z,8.50
2018-12-09T13:21:01.769Z,8.50
2018-12-09T13:23:31.231Z,8.50
2018-12-09T13:26:00.608Z,8.50
2018-12-09T13:28:29.965Z,8.50
2018-12-09T13:30:59.400Z,8.40
2018-12-09T13:33:28.761Z,8.40
2018-12-09T13:35:58.119Z,8.50
2018-12-09T13:38:27.464Z,8.60
2018-12-09T13:40:56.934Z,8.70
2018-12-09T13:43:26.402Z,8.70
2018-12-09T13:45:55.853Z,8.70
2018-12-09T13:48:25.700Z,8.70
2018-12-09T13:50:55.464Z,8.60
2018-12-09T13:53:25.073Z,8.60
2018-12-09T13:55:54.609Z,8.60
2018-12-09T13:58:23.977Z,8.60
2018-12-09T14:00:53.317Z,8.60
2018-12-09T14:03:22.758Z,8.60
2018-12-09T14:05:52.225Z,8.60
2018-12-09T14:08:21.560Z,8.60
2018-12-09T14:10:51.006Z,8.60
2018-12-09T14:13:20.340Z,8.60
2018-12-09T14:15:49.952Z,8.60
2018-12-09T14:18:19.385Z,8.80
2018-12-09T14:20:48.864Z,8.80
2018-12-09T14:23:18.202Z,8.70
2018-12-09T14:25:47.577Z,8.50
2018-12-09T14:28:17.113Z,8.30
2018-12-09T14:30:46.472Z,8.00
2018-12-09T14:33:16.197Z,7.80
2018-12-09T14:35:45.657Z,7.60
2018-12-09T14:38:15.349Z,7.50
2018-12-09T14:40:44.838Z,7.40
2018-12-09T14:43:14.217Z,7.20
2018-12-09T14:45:48.967Z,7.00
2018-12-09T14:48:15.108Z,6.90
2018-12-09T14:50:44.529Z,6.80
2018-12-09T14:53:13.874Z,6.60
2018-12-09T14:55:43.345Z,6.50
2018-12-09T14:58:12.823Z,6.40
2018-12-09T15:00:42.119Z,6.20
2018-12-09T15:03:11.510Z,6.10
2018-12-09T15:05:41.808Z,6.00
2018-12-09T15:08:11.394Z,6.10
2018-12-09T15:10:40.775Z,6.10
2018-12-09T15:13:10.185Z,6.00
2018-12-09T15:15:39.534Z,5.90
2018-12-09T15:18:08.935Z,5.80
2018-12-09T15:20:39.257Z,5.60
2018-12-09T15:23:08.786Z,5.60
2018-12-09T15:25:38.144Z,5.60
2018-12-09T15:28:07.699Z,5.40
2018-12-09T15:30:37.139Z,5.30
2018-12-09T15:33:06.398Z,5.10
2018-12-09T15:35:35.805Z,5.00
2018-12-09T15:38:05.208Z,4.90
2018-12-09T15:40:34.665Z,4.80
2018-12-09T15:43:04.340Z,4.70
2018-12-09T15:45:33.830Z,4.70
2018-12-09T15:48:03.317Z,4.60
2018-12-09T15:50:32.817Z,4.70
2018-12-09T15:53:02.209Z,4.60
2018-12-09T15:55:31.533Z,4.60
2018-12-09T15:58:00.905Z,4.60
2018-12-09T16:00:35.332Z,4.50
2018-12-09T16:03:04.721Z,4.40
2018-12-09T16:05:34.198Z,4.40
2018-12-09T16:08:03.592Z,4.40
2018-12-09T16:10:33.040Z,4.30
2018-12-09T16:13:02.521Z,4.10
2018-12-09T16:15:31.886Z,4.00
2018-12-09T16:18:01.693Z,3.90
2018-12-09T16:20:31.105Z,4.00
2018-12-09T16:23:00.513Z,3.90
2018-12-09T16:25:29.898Z,3.90
2018-12-09T16:27:59.355Z,3.90
2018-12-09T16:30:28.802Z,4.00
2018-12-09T16:32:58.261Z,4.00
2018-12-09T16:35:27.779Z,4.00
2018-12-09T16:37:57.253Z,4.10
2018-12-09T16:40:26.693Z,4.10
2018-12-09T16:42:56.211Z,4.10
2018-12-09T16:45:25.593Z,4.00
2018-12-09T16:47:55.053Z,4.10
2018-12-09T16:50:24.585Z,4.00
2018-12-09T16:52:54.199Z,4.00
2018-12-09T16:55:23.562Z,4.10
2018-12-09T16:57:52.918Z,4.20
2018-12-09T17:00:22.521Z,4.00
2018-12-09T17:02:52.024Z,4.00
2018-12-09T17:05:21.653Z,3.90
2018-12-09T17:07:51.149Z,3.70
2018-12-09T17:10:20.711Z,3.80
2018-12-09T17:12:50.208Z,3.70
2018-12-09T17:15:19.830Z,3.70
2018-12-09T17:17:49.399Z,3.60
2018-12-09T17:20:19.122Z,3.50
2018-12-09T17:22:48.477Z,3.40
2018-12-09T17:25:17.885Z,3.30
2018-12-09T17:27:47.275Z,3.30
2018-12-09T17:30:16.645Z,3.20
2018-12-09T17:32:46.117Z,3.10
2018-12-09T17:35:15.492Z,3.10
2018-12-09T17:37:44.961Z,3.10
2018-12-09T17:40:14.524Z,3.10
2018-12-09T17:42:43.987Z,3.10
2018-12-09T17:45:13.686Z,3.10
2018-12-09T17:47:43.217Z,3.10
2018-12-09T17:50:12.713Z,3.00
2018-12-09T17:52:42.121Z,3.00
2018-12-09T17:55:11.543Z,2.90
2018-12-09T17:57:40.909Z,2.80
2018-12-09T18:00:10.494Z,2.80
2018-12-09T18:02:39.876Z,2.70
2018-12-09T18:05:09.321Z,2.70
2018-12-09T18:07:38.833Z,2.60
2018-12-09T18:10:08.626Z,2.50
2018-12-09T18:12:38.137Z,2.40
2018-12-09T18:15:11.841Z,2.40
2018-12-09T18:17:41.195Z,2.40
2018-12-09T18:20:10.606Z,2.30
2018-12-09T18:22:39.974Z,2.40
2018-12-09T18:25:09.568Z,2.50
2018-12-09T18:27:38.976Z,2.50
2018-12-09T18:30:08.447Z,2.50
2018-12-09T18:32:38.088Z,2.60
2018-12-09T18:35:09.036Z,2.70
2018-12-09T18:37:38.562Z,2.70
2018-12-09T18:40:09.090Z,2.70
2018-12-09T18:42:38.500Z,2.50
2018-12-09T18:45:08.199Z,2.50
2018-12-09T18:47:37.612Z,2.40
2018-12-09T18:50:07.149Z,2.30
2018-12-09T18:52:36.669Z,2.20
2018-12-09T18:55:06.306Z,2.30
2018-12-09T18:57:35.717Z,2.20
2018-12-09T19:00:05.893Z,2.20
2018-12-09T19:02:35.353Z,2.10
2018-12-09T19:05:05.657Z,2.10
2018-12-09T19:07:35.212Z,2.10
2018-12-09T19:10:05.297Z,2.10
2018-12-09T19:12:34.748Z,2.10
2018-12-09T19:15:04.511Z,2.10
2018-12-09T19:17:33.961Z,2.00
2018-12-09T19:20:03.616Z,2.00
2018-12-09T19:22:33.017Z,2.00
2018-12-09T19:25:02.393Z,2.00
2018-12-09T19:27:31.863Z,2.00
2018-12-09T19:30:01.434Z,2.00
2018-12-09T19:32:30.809Z,2.10
2018-12-09T19:35:00.293Z,2.10
2018-12-09T19:37:30.341Z,2.10
2018-12-09T19:39:59.730Z,2.10
2018-12-09T19:42:29.264Z,2.20
2018-12-09T19:44:58.741Z,2.20
2018-12-09T19:47:28.115Z,2.20
2018-12-09T19:49:57.591Z,2.10
2018-12-09T19:52:27.098Z,2.10
2018-12-09T19:54:56.457Z,2.10
2018-12-09T19:57:27.294Z,2.00
2018-12-09T19:59:56.829Z,2.00
2018-12-09T20:02:26.384Z,2.00
2018-12-09T20:04:56.033Z,2.00
2018-12-09T20:07:25.475Z,2.00
2018-12-09T20:09:54.905Z,1.90
2018-12-09T20:12:24.628Z,1.90
2018-12-09T20:14:54.186Z,1.90
2018-12-09T20:17:24.652Z,1.90
2018-12-09T20:19:54.381Z,1.90
2018-12-09T20:22:23.865Z,1.80
2018-12-09T20:24:53.373Z,1.80
2018-12-09T20:27:23.646Z,1.70
2018-12-09T20:29:53.137Z,1.70
2018-12-09T20:32:22.521Z,1.70
2018-12-09T20:34:51.969Z,1.90
2018-12-09T20:37:22.301Z,1.90
2018-12-09T20:39:51.669Z,1.90
2018-12-09T20:42:21.149Z,1.80
2018-12-09T20:44:50.598Z,1.70
2018-12-09T20:47:23.780Z,1.60
2018-12-09T20:49:53.377Z,1.50
2018-12-09T20:52:23.025Z,1.40
2018-12-09T20:54:52.833Z,1.40
2018-12-09T20:57:23.736Z,1.30
2018-12-09T20:59:53.534Z,1.30
2018-12-09T21:02:23.166Z,1.30
2018-12-09T21:04:52.729Z,1.30
2018-12-09T21:07:22.350Z,1.20
2018-12-09T21:09:51.973Z,1.20
2018-12-09T21:12:21.482Z,1.20
2018-12-09T21:14:50.882Z,1.20
2018-12-09T21:17:20.282Z,1.20
2018-12-09T21:19:50.364Z,1.20
2018-12-09T21:22:19.871Z,1.40
2018-12-09T21:24:49.266Z,1.40
2018-12-09T21:27:19.094Z,1.30
2018-12-09T21:29:48.585Z,1.20
2018-12-09T21:32:18.121Z,1.10
2018-12-09T21:34:47.543Z,1.00
2018-12-09T21:39:53.513Z,1.00
2018-12-09T21:42:22.894Z,1.00
2018-12-09T21:44:52.453Z,1.00
2018-12-09T21:47:28.441Z,1.10
2018-12-09T21:49:58.028Z,1.10
2018-12-09T21:52:27.768Z,1.10
2018-12-09T21:54:57.293Z,1.10
2018-12-09T21:57:26.669Z,1.10
2018-12-09T21:59:56.029Z,1.10
2018-12-09T22:02:25.423Z,1.10
2018-12-09T22:04:54.833Z,1.10
2018-12-09T22:07:24.325Z,1.10
2018-12-09T22:09:53.789Z,1.00
2018-12-09T22:12:23.284Z,1.00
2018-12-09T22:14:52.893Z,1.00
2018-12-09T22:17:22.342Z,1.00
2018-12-09T22:19:51.816Z,0.90
2018-12-09T22:22:21.225Z,0.80
2018-12-09T22:24:50.718Z,0.80
2018-12-09T22:27:20.131Z,0.70
2018-12-09T22:29:49.656Z,0.60
2018-12-09T22:32:19.077Z,0.60
2018-12-09T22:34:48.441Z,0.60
2018-12-09T22:37:17.825Z,0.60
2018-12-09T22:39:47.335Z,0.50
2018-12-09T22:42:16.693Z,0.50
2018-12-09T22:44:46.078Z,0.50
2018-12-09T22:47:15.500Z,0.50
2018-12-09T22:49:45.003Z,0.40
2018-12-09T22:52:14.372Z,0.40
2018-12-09T22:54:44.210Z,0.40
2018-12-09T22:57:13.596Z,0.30
2018-12-09T22:59:42.970Z,0.20
2018-12-09T23:02:17.853Z,0.20
2018-12-09T23:04:47.284Z,0.10
2018-12-09T23:07:22.025Z,0.10
2018-12-09T23:09:56.749Z,0.10
2018-12-09T23:12:26.136Z,0.10
2018-12-09T23:14:55.713Z,0.10
2018-12-09T23:17:25.099Z,0.10
2018-12-09T23:19:54.491Z,0.00
2018-12-09T23:22:23.886Z,0.00
2018-12-09T23:24:53.365Z,0.00
2018-12-09T23:27:23.426Z,0.00
2018-12-09T23:29:52.921Z,-0.10
2018-12-09T23:32:22.329Z,-0.10
2018-12-09T23:34:51.717Z,-0.10
2018-12-09T23:37:21.101Z,-0.10
2018-12-09T23:39:51.081Z,-0.10
2018-12-09T23:42:20.472Z,-0.20
2018-12-09T23:44:49.861Z,-0.20
2018-12-09T23:47:19.281Z,-0.20
2018-12-09T23:49:48.690Z,-0.30
2018-12-09T23:52:18.129Z,-0.30
2018-12-09T23:54:47.544Z,-0.30
2018-12-09T23:57:17.045Z,-0.30
2018-12-09T23:59:46.453Z,-0.40
